sensor_id;sensor_type;location;lat;lon;timestamp;pressure;altitude;pressure_sealevel;temperature;humidity
79236;BME280;69062;47.460;18.812;2023-07-24T00:00:10;99906.50;;;27.98;50.27
79236;BME280;69062;47.460;18.812;2023-07-24T00:01:13;99907.34;;;27.99;50.33
79236;BME280;69062;47.460;18.812;2023-07-24T00:02:15;99907.56;;;27.97;49.65
79236;BME280;69062;47.460;18.812;2023-07-24T00:03:18;99907.56;;;27.97;49.46
79236;BME280;69062;47.460;18.812;2023-07-24T00:04:21;99904.84;;;27.97;50.00
79236;BME280;69062;47.460;18.812;2023-07-24T00:05:24;99906.72;;;27.97;49.72
79236;BME280;69062;47.460;18.812;2023-07-24T00:06:26;99900.44;;;27.96;50.17
79236;BME280;69062;47.460;18.812;2023-07-24T00:07:30;99900.44;;;27.96;50.40
79236;BME280;69062;47.460;18.812;2023-07-24T00:08:32;99904.16;;;27.95;49.50
79236;BME280;69062;47.460;18.812;2023-07-24T00:09:35;99901.47;;;27.95;49.93
79236;BME280;69062;47.460;18.812;2023-07-24T00:10:38;99899.78;;;27.94;49.38
79236;BME280;69062;47.460;18.812;2023-07-24T00:11:41;99901.66;;;27.94;50.51
79236;BME280;69062;47.460;18.812;2023-07-24T00:12:44;99900.63;;;27.95;50.18
79236;BME280;69062;47.460;18.812;2023-07-24T00:13:47;99902.50;;;27.94;50.14
79236;BME280;69062;47.460;18.812;2023-07-24T00:14:52;99900.81;;;27.93;50.23
79236;BME280;69062;47.460;18.812;2023-07-24T00:15:56;99893.72;;;27.92;49.95
79236;BME280;69062;47.460;18.812;2023-07-24T00:16:59;99904.56;;;27.92;50.05
79236;BME280;69062;47.460;18.812;2023-07-24T00:18:01;99901.84;;;27.92;49.62
79236;BME280;69062;47.460;18.812;2023-07-24T00:19:04;99899.13;;;27.92;49.61
79236;BME280;69062;47.460;18.812;2023-07-24T00:20:07;99892.03;;;27.91;49.83
79236;BME280;69062;47.460;18.812;2023-07-24T00:21:10;99902.06;;;27.91;50.36
79236;BME280;69062;47.460;18.812;2023-07-24T00:22:15;99899.34;;;27.91;49.63
79236;BME280;69062;47.460;18.812;2023-07-24T00:23:18;99897.47;;;27.91;50.20
79236;BME280;69062;47.460;18.812;2023-07-24T00:24:21;99895.78;;;27.90;50.65
79236;BME280;69062;47.460;18.812;2023-07-24T00:25:24;99894.94;;;27.90;50.53
79236;BME280;69062;47.460;18.812;2023-07-24T00:26:26;99893.28;;;27.89;50.54
79236;BME280;69062;47.460;18.812;2023-07-24T00:27:31;99886.97;;;27.88;50.03
79236;BME280;69062;47.460;18.812;2023-07-24T00:28:34;99886.97;;;27.88;50.10
79236;BME280;69062;47.460;18.812;2023-07-24T00:29:36;99892.41;;;27.88;49.88
79236;BME280;69062;47.460;18.812;2023-07-24T00:30:39;99893.44;;;27.87;49.69
79236;BME280;69062;47.460;18.812;2023-07-24T00:31:42;99889.06;;;27.86;50.55
79236;BME280;69062;47.460;18.812;2023-07-24T00:32:46;99886.34;;;27.86;50.27
79236;BME280;69062;47.460;18.812;2023-07-24T00:33:48;99888.03;;;27.87;50.66
79236;BME280;69062;47.460;18.812;2023-07-24T00:34:51;99889.91;;;27.87;50.83
79236;BME280;69062;47.460;18.812;2023-07-24T00:35:57;99888.22;;;27.86;50.30
79236;BME280;69062;47.460;18.812;2023-07-24T00:37:03;99881.94;;;27.85;50.61
79236;BME280;69062;47.460;18.812;2023-07-24T00:38:06;99890.09;;;27.85;49.96
79236;BME280;69062;47.460;18.812;2023-07-24T00:39:09;99887.38;;;27.85;49.96
79236;BME280;69062;47.460;18.812;2023-07-24T00:40:11;99876.53;;;27.85;50.02
79236;BME280;69062;47.460;18.812;2023-07-24T00:41:14;99878.41;;;27.85;50.46
79236;BME280;69062;47.460;18.812;2023-07-24T00:42:17;99874.00;;;27.84;49.61
79236;BME280;69062;47.460;18.812;2023-07-24T00:43:23;99872.34;;;27.83;50.30
79236;BME280;69062;47.460;18.812;2023-07-24T00:44:25;99874.00;;;27.84;50.01
79236;BME280;69062;47.460;18.812;2023-07-24T00:45:29;99872.34;;;27.83;50.43
79236;BME280;69062;47.460;18.812;2023-07-24T00:46:33;99876.94;;;27.82;49.86
79236;BME280;69062;47.460;18.812;2023-07-24T00:47:37;99873.38;;;27.82;49.68
79236;BME280;69062;47.460;18.812;2023-07-24T00:48:40;99864.34;;;27.81;50.47
79236;BME280;69062;47.460;18.812;2023-07-24T00:49:43;99860.81;;;27.81;50.32
79236;BME280;69062;47.460;18.812;2023-07-24T00:50:47;99868.94;;;27.81;50.44
79236;BME280;69062;47.460;18.812;2023-07-24T00:51:50;99864.56;;;27.80;49.76
79236;BME280;69062;47.460;18.812;2023-07-24T00:52:54;99863.53;;;27.81;49.84
79236;BME280;69062;47.460;18.812;2023-07-24T00:54:02;99868.09;;;27.80;49.94
79236;BME280;69062;47.460;18.812;2023-07-24T00:55:05;99859.13;;;27.80;50.70
79236;BME280;69062;47.460;18.812;2023-07-24T00:56:10;99864.75;;;27.78;50.57
79236;BME280;69062;47.460;18.812;2023-07-24T00:57:13;99860.16;;;27.79;50.29
79236;BME280;69062;47.460;18.812;2023-07-24T00:58:17;99861.22;;;27.78;49.71
79236;BME280;69062;47.460;18.812;2023-07-24T00:59:21;99870.19;;;27.78;50.11
79236;BME280;69062;47.460;18.812;2023-07-24T01:00:24;99859.34;;;27.78;50.17
79236;BME280;69062;47.460;18.812;2023-07-24T01:01:28;99863.09;;;27.77;49.71
79236;BME280;69062;47.460;18.812;2023-07-24T01:02:31;99863.09;;;27.77;49.90
79236;BME280;69062;47.460;18.812;2023-07-24T01:03:35;99868.50;;;27.77;50.25
79236;BME280;69062;47.460;18.812;2023-07-24T01:04:39;99868.72;;;27.75;49.95
79236;BME280;69062;47.460;18.812;2023-07-24T01:05:41;99864.13;;;27.76;51.01
79236;BME280;69062;47.460;18.812;2023-07-24T01:06:44;99871.44;;;27.75;50.97
79236;BME280;69062;47.460;18.812;2023-07-24T01:07:47;99875.19;;;27.74;51.03
79236;BME280;69062;47.460;18.812;2023-07-24T01:08:50;99873.31;;;27.75;50.14
79236;BME280;69062;47.460;18.812;2023-07-24T01:09:53;99870.59;;;27.75;50.71
79236;BME280;69062;47.460;18.812;2023-07-24T01:11:01;99866.16;;;27.74;50.82
79236;BME280;69062;47.460;18.812;2023-07-24T01:12:31;99870.75;;;27.73;50.38
79236;BME280;69062;47.460;18.812;2023-07-24T01:13:42;99866.16;;;27.74;50.73
79236;BME280;69062;47.460;18.812;2023-07-24T01:14:51;99874.31;;;27.74;50.68
79236;BME280;69062;47.460;18.812;2023-07-24T01:16:01;99871.59;;;27.74;50.28
79236;BME280;69062;47.460;18.812;2023-07-24T01:17:07;99863.66;;;27.72;50.38
79236;BME280;69062;47.460;18.812;2023-07-24T01:18:14;99867.22;;;27.73;50.64
79236;BME280;69062;47.460;18.812;2023-07-24T01:19:41;99860.09;;;27.72;49.91
79236;BME280;69062;47.460;18.812;2023-07-24T01:20:50;99856.56;;;27.71;50.26
79236;BME280;69062;47.460;18.812;2023-07-24T01:26:07;99861.16;;;27.71;50.87
79236;BME280;69062;47.460;18.812;2023-07-24T01:27:10;99853.00;;;27.71;50.29
79236;BME280;69062;47.460;18.812;2023-07-24T01:28:13;99857.59;;;27.70;50.39
79236;BME280;69062;47.460;18.812;2023-07-24T01:29:15;99859.47;;;27.70;50.61
79236;BME280;69062;47.460;18.812;2023-07-24T01:30:19;99856.97;;;27.68;50.74
79236;BME280;69062;47.460;18.812;2023-07-24T01:31:22;99863.22;;;27.69;50.82
79236;BME280;69062;47.460;18.812;2023-07-24T01:32:25;99855.06;;;27.69;50.34
79236;BME280;69062;47.460;18.812;2023-07-24T01:33:28;99860.50;;;27.69;50.12
79236;BME280;69062;47.460;18.812;2023-07-24T01:34:31;99853.41;;;27.68;50.13
79236;BME280;69062;47.460;18.812;2023-07-24T01:35:34;99865.09;;;27.68;50.08
79236;BME280;69062;47.460;18.812;2023-07-24T01:36:37;99865.09;;;27.68;50.39
79236;BME280;69062;47.460;18.812;2023-07-24T01:37:41;99861.53;;;27.68;50.83
79236;BME280;69062;47.460;18.812;2023-07-24T01:38:46;99858.84;;;27.68;50.23
79236;BME280;69062;47.460;18.812;2023-07-24T01:39:50;99859.84;;;27.67;50.70
79236;BME280;69062;47.460;18.812;2023-07-24T01:40:56;99858.97;;;27.66;50.20
79236;BME280;69062;47.460;18.812;2023-07-24T01:42:00;99858.13;;;27.66;51.04
79236;BME280;69062;47.460;18.812;2023-07-24T01:43:02;99854.41;;;27.67;50.74
79236;BME280;69062;47.460;18.812;2023-07-24T01:44:05;99858.13;;;27.66;50.74
79236;BME280;69062;47.460;18.812;2023-07-24T01:45:08;99859.16;;;27.65;50.25
79236;BME280;69062;47.460;18.812;2023-07-24T01:46:11;99860.84;;;27.66;50.76
79236;BME280;69062;47.460;18.812;2023-07-24T01:47:14;99864.59;;;27.65;50.35
79236;BME280;69062;47.460;18.812;2023-07-24T01:48:17;99858.34;;;27.64;50.77
79236;BME280;69062;47.460;18.812;2023-07-24T01:49:19;99853.75;;;27.65;50.77
79236;BME280;69062;47.460;18.812;2023-07-24T01:50:22;99859.16;;;27.65;50.75
79236;BME280;69062;47.460;18.812;2023-07-24T01:51:25;99858.34;;;27.64;50.73
79236;BME280;69062;47.460;18.812;2023-07-24T01:52:28;99854.78;;;27.64;50.80
79236;BME280;69062;47.460;18.812;2023-07-24T01:53:30;99854.78;;;27.64;50.49
79236;BME280;69062;47.460;18.812;2023-07-24T01:54:33;99860.22;;;27.64;50.84
79236;BME280;69062;47.460;18.812;2023-07-24T01:55:36;99857.50;;;27.64;50.22
79236;BME280;69062;47.460;18.812;2023-07-24T01:56:39;99862.09;;;27.63;50.28
79236;BME280;69062;47.460;18.812;2023-07-24T01:57:42;99861.25;;;27.63;50.62
79236;BME280;69062;47.460;18.812;2023-07-24T01:58:45;99853.94;;;27.63;50.26
79236;BME280;69062;47.460;18.812;2023-07-24T01:59:48;99857.69;;;27.62;50.26
79236;BME280;69062;47.460;18.812;2023-07-24T02:00:55;99855.81;;;27.63;50.69
79236;BME280;69062;47.460;18.812;2023-07-24T02:01:58;99854.13;;;27.62;50.82
79236;BME280;69062;47.460;18.812;2023-07-24T02:03:00;99854.13;;;27.62;50.70
79236;BME280;69062;47.460;18.812;2023-07-24T02:04:03;99856.84;;;27.62;50.25
79236;BME280;69062;47.460;18.812;2023-07-24T02:05:08;99858.72;;;27.61;50.33
79236;BME280;69062;47.460;18.812;2023-07-24T02:06:10;99849.75;;;27.61;51.02
79236;BME280;69062;47.460;18.812;2023-07-24T02:07:13;99860.59;;;27.61;50.53
79236;BME280;69062;47.460;18.812;2023-07-24T02:08:16;99852.47;;;27.61;50.53
79236;BME280;69062;47.460;18.812;2023-07-24T02:09:19;99848.06;;;27.60;50.64
79236;BME280;69062;47.460;18.812;2023-07-24T02:10:21;99851.63;;;27.60;51.00
79236;BME280;69062;47.460;18.812;2023-07-24T02:11:24;99854.34;;;27.60;51.08
79236;BME280;69062;47.460;18.812;2023-07-24T02:12:27;99857.91;;;27.61;50.80
79236;BME280;69062;47.460;18.812;2023-07-24T02:13:30;99857.06;;;27.60;50.77
79236;BME280;69062;47.460;18.812;2023-07-24T02:14:33;99856.22;;;27.60;50.82
79236;BME280;69062;47.460;18.812;2023-07-24T02:15:36;99854.50;;;27.59;51.15
79236;BME280;69062;47.460;18.812;2023-07-24T02:16:39;99849.91;;;27.59;50.33
79236;BME280;69062;47.460;18.812;2023-07-24T02:17:42;99859.09;;;27.58;50.47
79236;BME280;69062;47.460;18.812;2023-07-24T02:18:45;99854.50;;;27.59;50.52
79236;BME280;69062;47.460;18.812;2023-07-24T02:19:49;99859.94;;;27.59;51.17
79236;BME280;69062;47.460;18.812;2023-07-24T02:20:52;99851.78;;;27.59;50.45
79236;BME280;69062;47.460;18.812;2023-07-24T02:21:56;99842.81;;;27.58;51.21
79236;BME280;69062;47.460;18.812;2023-07-24T02:22:58;99848.25;;;27.58;51.00
79236;BME280;69062;47.460;18.812;2023-07-24T02:24:02;99852.84;;;27.58;50.44
79236;BME280;69062;47.460;18.812;2023-07-24T02:25:06;99850.13;;;27.58;50.45
79236;BME280;69062;47.460;18.812;2023-07-24T02:26:09;99852.00;;;27.57;50.14
79236;BME280;69062;47.460;18.812;2023-07-24T02:27:12;99853.69;;;27.58;50.61
79236;BME280;69062;47.460;18.812;2023-07-24T02:28:16;99855.75;;;27.56;51.13
79236;BME280;69062;47.460;18.812;2023-07-24T02:29:20;99843.84;;;27.57;50.64
79236;BME280;69062;47.460;18.812;2023-07-24T02:30:23;99851.16;;;27.57;50.58
79236;BME280;69062;47.460;18.812;2023-07-24T02:31:26;99860.13;;;27.57;50.47
79236;BME280;69062;47.460;18.812;2023-07-24T02:32:31;99855.94;;;27.55;51.09
79236;BME280;69062;47.460;18.812;2023-07-24T02:33:34;99851.16;;;27.57;50.97
79236;BME280;69062;47.460;18.812;2023-07-24T02:34:37;99854.91;;;27.56;50.44
79236;BME280;69062;47.460;18.812;2023-07-24T02:35:41;99863.06;;;27.56;50.65
79236;BME280;69062;47.460;18.812;2023-07-24T02:36:43;99864.09;;;27.55;50.43
79236;BME280;69062;47.460;18.812;2023-07-24T02:37:46;99857.63;;;27.56;51.20
79236;BME280;69062;47.460;18.812;2023-07-24T02:38:49;99864.94;;;27.55;51.21
79236;BME280;69062;47.460;18.812;2023-07-24T02:39:52;99864.94;;;27.55;50.80
79236;BME280;69062;47.460;18.812;2023-07-24T02:40:55;99863.44;;;27.53;50.49
79236;BME280;69062;47.460;18.812;2023-07-24T02:41:58;99868.47;;;27.56;50.43
79236;BME280;69062;47.460;18.812;2023-07-24T02:43:01;99857.81;;;27.54;50.68
79236;BME280;69062;47.460;18.812;2023-07-24T02:44:04;99862.41;;;27.54;50.75
79236;BME280;69062;47.460;18.812;2023-07-24T02:45:07;99862.41;;;27.54;51.06
79236;BME280;69062;47.460;18.812;2023-07-24T02:46:13;99865.97;;;27.54;50.70
79236;BME280;69062;47.460;18.812;2023-07-24T02:47:17;99867.84;;;27.54;50.46
79236;BME280;69062;47.460;18.812;2023-07-24T02:48:20;99867.00;;;27.53;51.18
79236;BME280;69062;47.460;18.812;2023-07-24T02:49:23;99859.88;;;27.52;51.29
79236;BME280;69062;47.460;18.812;2023-07-24T02:50:25;99860.75;;;27.53;51.03
79236;BME280;69062;47.460;18.812;2023-07-24T02:51:28;99861.56;;;27.53;50.67
79236;BME280;69062;47.460;18.812;2023-07-24T02:52:31;99857.16;;;27.52;50.54
79236;BME280;69062;47.460;18.812;2023-07-24T02:53:34;99864.47;;;27.52;51.29
79236;BME280;69062;47.460;18.812;2023-07-24T02:54:36;99861.75;;;27.52;50.52
79236;BME280;69062;47.460;18.812;2023-07-24T02:55:42;99859.88;;;27.52;50.50
79236;BME280;69062;47.460;18.812;2023-07-24T02:56:46;99859.88;;;27.52;50.69
79236;BME280;69062;47.460;18.812;2023-07-24T02:57:48;99859.03;;;27.52;50.65
79236;BME280;69062;47.460;18.812;2023-07-24T02:58:51;99860.06;;;27.51;50.49
79236;BME280;69062;47.460;18.812;2023-07-24T02:59:54;99864.47;;;27.52;51.25
79236;BME280;69062;47.460;18.812;2023-07-24T03:01:07;99866.34;;;27.51;50.77
79236;BME280;69062;47.460;18.812;2023-07-24T03:02:10;99864.47;;;27.52;51.17
79236;BME280;69062;47.460;18.812;2023-07-24T03:03:12;99857.34;;;27.51;50.36
79236;BME280;69062;47.460;18.812;2023-07-24T03:04:15;99850.25;;;27.49;51.21
79236;BME280;69062;47.460;18.812;2023-07-24T03:05:18;99843.78;;;27.51;51.09
79236;BME280;69062;47.460;18.812;2023-07-24T03:06:21;99845.66;;;27.50;51.02
79236;BME280;69062;47.460;18.812;2023-07-24T03:07:23;99842.94;;;27.50;50.90
79236;BME280;69062;47.460;18.812;2023-07-24T03:08:26;99838.56;;;27.49;51.27
79236;BME280;69062;47.460;18.812;2023-07-24T03:09:29;99853.81;;;27.50;51.20
79236;BME280;69062;47.460;18.812;2023-07-24T03:10:31;99851.28;;;27.48;51.01
79236;BME280;69062;47.460;18.812;2023-07-24T03:11:34;99848.56;;;27.48;51.25
79236;BME280;69062;47.460;18.812;2023-07-24T03:12:37;99848.56;;;27.48;51.09
79236;BME280;69062;47.460;18.812;2023-07-24T03:13:40;99842.31;;;27.48;50.59
79236;BME280;69062;47.460;18.812;2023-07-24T03:14:44;99840.44;;;27.48;50.49
79236;BME280;69062;47.460;18.812;2023-07-24T03:15:54;99837.72;;;27.48;51.06
79236;BME280;69062;47.460;18.812;2023-07-24T03:16:57;99830.81;;;27.46;51.08
79236;BME280;69062;47.460;18.812;2023-07-24T03:18:03;99841.47;;;27.47;51.39
79236;BME280;69062;47.460;18.812;2023-07-24T03:19:06;99836.03;;;27.47;50.59
79236;BME280;69062;47.460;18.812;2023-07-24T03:20:15;99840.63;;;27.47;51.12
79236;BME280;69062;47.460;18.812;2023-07-24T03:21:19;99837.91;;;27.47;51.06
79236;BME280;69062;47.460;18.812;2023-07-24T03:22:22;99831.66;;;27.46;50.81
79236;BME280;69062;47.460;18.812;2023-07-24T03:23:25;99842.50;;;27.46;50.87
79236;BME280;69062;47.460;18.812;2023-07-24T03:24:28;99842.50;;;27.46;50.86
79236;BME280;69062;47.460;18.812;2023-07-24T03:25:31;99836.25;;;27.46;50.42
79236;BME280;69062;47.460;18.812;2023-07-24T03:26:38;99839.78;;;27.46;50.96
79236;BME280;69062;47.460;18.812;2023-07-24T03:27:41;99840.84;;;27.45;50.79
79236;BME280;69062;47.460;18.812;2023-07-24T03:28:43;99839.78;;;27.46;51.06
79236;BME280;69062;47.460;18.812;2023-07-24T03:29:46;99849.81;;;27.46;50.43
79236;BME280;69062;47.460;18.812;2023-07-24T03:30:49;99834.53;;;27.45;51.05
79236;BME280;69062;47.460;18.812;2023-07-24T03:31:52;99836.25;;;27.46;50.76
79236;BME280;69062;47.460;18.812;2023-07-24T03:32:55;99838.13;;;27.45;50.79
79236;BME280;69062;47.460;18.812;2023-07-24T03:33:57;99834.53;;;27.45;51.03
79236;BME280;69062;47.460;18.812;2023-07-24T03:35:01;99838.13;;;27.45;50.48
79236;BME280;69062;47.460;18.812;2023-07-24T03:36:04;99831.00;;;27.44;51.12
79236;BME280;69062;47.460;18.812;2023-07-24T03:37:07;99831.00;;;27.44;51.44
79236;BME280;69062;47.460;18.812;2023-07-24T03:38:09;99828.28;;;27.44;50.94
79236;BME280;69062;47.460;18.812;2023-07-24T03:39:12;99831.00;;;27.44;51.14
79236;BME280;69062;47.460;18.812;2023-07-24T03:40:15;99828.28;;;27.44;50.68
79236;BME280;69062;47.460;18.812;2023-07-24T03:41:18;99833.91;;;27.43;50.91
79236;BME280;69062;47.460;18.812;2023-07-24T03:42:27;99829.31;;;27.43;51.27
79236;BME280;69062;47.460;18.812;2023-07-24T03:43:30;99832.03;;;27.43;51.65
79236;BME280;69062;47.460;18.812;2023-07-24T03:44:34;99832.88;;;27.44;50.55
79236;BME280;69062;47.460;18.812;2023-07-24T03:45:37;99840.16;;;27.43;50.71
79236;BME280;69062;47.460;18.812;2023-07-24T03:46:40;99830.16;;;27.44;50.82
79236;BME280;69062;47.460;18.812;2023-07-24T03:47:42;99826.59;;;27.43;51.04
79236;BME280;69062;47.460;18.812;2023-07-24T03:48:45;99824.72;;;27.44;51.10
79236;BME280;69062;47.460;18.812;2023-07-24T03:49:48;99825.75;;;27.43;51.14
79236;BME280;69062;47.460;18.812;2023-07-24T03:50:58;99819.50;;;27.42;50.76
79236;BME280;69062;47.460;18.812;2023-07-24T03:52:02;99822.22;;;27.42;50.79
79236;BME280;69062;47.460;18.812;2023-07-24T03:53:04;99819.50;;;27.42;51.42
79236;BME280;69062;47.460;18.812;2023-07-24T03:54:07;99816.78;;;27.42;50.68
79236;BME280;69062;47.460;18.812;2023-07-24T03:55:10;99822.22;;;27.42;50.81
79236;BME280;69062;47.460;18.812;2023-07-24T03:56:13;99824.94;;;27.42;50.67
79236;BME280;69062;47.460;18.812;2023-07-24T03:57:15;99828.69;;;27.41;51.24
79236;BME280;69062;47.460;18.812;2023-07-24T03:58:18;99827.63;;;27.42;50.72
79236;BME280;69062;47.460;18.812;2023-07-24T03:59:21;99825.13;;;27.41;51.07
79236;BME280;69062;47.460;18.812;2023-07-24T04:00:24;99831.38;;;27.41;51.08
79236;BME280;69062;47.460;18.812;2023-07-24T04:01:26;99831.38;;;27.41;51.21
79236;BME280;69062;47.460;18.812;2023-07-24T04:02:29;99830.56;;;27.41;50.46
79236;BME280;69062;47.460;18.812;2023-07-24T04:03:32;99820.53;;;27.41;50.61
79236;BME280;69062;47.460;18.812;2023-07-24T04:04:35;99831.38;;;27.41;50.51
79236;BME280;69062;47.460;18.812;2023-07-24T04:05:37;99832.44;;;27.40;51.08
79236;BME280;69062;47.460;18.812;2023-07-24T04:06:40;99829.72;;;27.40;50.77
79236;BME280;69062;47.460;18.812;2023-07-24T04:07:43;99828.88;;;27.40;51.02
79236;BME280;69062;47.460;18.812;2023-07-24T04:08:46;99829.72;;;27.40;50.43
79236;BME280;69062;47.460;18.812;2023-07-24T04:09:48;99824.28;;;27.40;50.70
79236;BME280;69062;47.460;18.812;2023-07-24T04:10:51;99829.72;;;27.40;50.74
79236;BME280;69062;47.460;18.812;2023-07-24T04:11:55;99825.31;;;27.39;50.44
79236;BME280;69062;47.460;18.812;2023-07-24T04:12:58;99824.28;;;27.40;50.55
79236;BME280;69062;47.460;18.812;2023-07-24T04:14:01;99819.91;;;27.39;50.60
79236;BME280;69062;47.460;18.812;2023-07-24T04:15:04;99825.31;;;27.39;51.20
79236;BME280;69062;47.460;18.812;2023-07-24T04:16:07;99825.31;;;27.39;50.57
79236;BME280;69062;47.460;18.812;2023-07-24T04:17:09;99820.75;;;27.40;51.28
79236;BME280;69062;47.460;18.812;2023-07-24T04:18:12;99819.91;;;27.39;50.55
79236;BME280;69062;47.460;18.812;2023-07-24T04:19:15;99820.75;;;27.40;50.37
79236;BME280;69062;47.460;18.812;2023-07-24T04:20:18;99824.50;;;27.39;51.04
79236;BME280;69062;47.460;18.812;2023-07-24T04:21:21;99820.94;;;27.38;51.17
79236;BME280;69062;47.460;18.812;2023-07-24T04:22:25;99824.50;;;27.39;51.41
79236;BME280;69062;47.460;18.812;2023-07-24T04:23:28;99821.78;;;27.39;51.50
79236;BME280;69062;47.460;18.812;2023-07-24T04:24:30;99822.63;;;27.39;50.89
79236;BME280;69062;47.460;18.812;2023-07-24T04:25:33;99821.78;;;27.39;51.21
79236;BME280;69062;47.460;18.812;2023-07-24T04:26:36;99816.34;;;27.39;51.30
79236;BME280;69062;47.460;18.812;2023-07-24T04:27:39;99820.94;;;27.38;51.24
79236;BME280;69062;47.460;18.812;2023-07-24T04:28:42;99815.50;;;27.38;50.96
79236;BME280;69062;47.460;18.812;2023-07-24T04:29:45;99818.22;;;27.38;51.00
79236;BME280;69062;47.460;18.812;2023-07-24T04:30:47;99819.06;;;27.39;51.25
79236;BME280;69062;47.460;18.812;2023-07-24T04:31:50;99823.66;;;27.38;51.10
79236;BME280;69062;47.460;18.812;2023-07-24T04:32:53;99817.38;;;27.38;50.92
79236;BME280;69062;47.460;18.812;2023-07-24T04:33:56;99823.66;;;27.38;51.24
79236;BME280;69062;47.460;18.812;2023-07-24T04:34:58;99821.94;;;27.37;50.66
79236;BME280;69062;47.460;18.812;2023-07-24T04:36:01;99830.94;;;27.38;50.79
79236;BME280;69062;47.460;18.812;2023-07-24T04:37:04;99823.81;;;27.37;50.51
79236;BME280;69062;47.460;18.812;2023-07-24T04:38:07;99821.94;;;27.37;51.11
79236;BME280;69062;47.460;18.812;2023-07-24T04:39:09;99830.09;;;27.37;51.00
79236;BME280;69062;47.460;18.812;2023-07-24T04:40:12;99829.25;;;27.37;50.71
79236;BME280;69062;47.460;18.812;2023-07-24T04:41:15;99825.53;;;27.38;50.78
79236;BME280;69062;47.460;18.812;2023-07-24T04:42:18;99832.78;;;27.37;50.59
79236;BME280;69062;47.460;18.812;2023-07-24T04:43:21;99826.53;;;27.37;50.46
79236;BME280;69062;47.460;18.812;2023-07-24T04:44:23;99818.41;;;27.37;50.57
79236;BME280;69062;47.460;18.812;2023-07-24T04:45:26;99820.09;;;27.38;51.01
79236;BME280;69062;47.460;18.812;2023-07-24T04:46:29;99828.25;;;27.38;50.80
79236;BME280;69062;47.460;18.812;2023-07-24T04:47:32;99826.53;;;27.37;50.86
79236;BME280;69062;47.460;18.812;2023-07-24T04:48:35;99829.25;;;27.37;50.70
79236;BME280;69062;47.460;18.812;2023-07-24T04:49:38;99826.53;;;27.37;50.92
79236;BME280;69062;47.460;18.812;2023-07-24T04:50:41;99836.53;;;27.36;50.71
79236;BME280;69062;47.460;18.812;2023-07-24T04:51:44;99823.81;;;27.37;50.50
79236;BME280;69062;47.460;18.812;2023-07-24T04:52:47;99832.78;;;27.37;50.95
79236;BME280;69062;47.460;18.812;2023-07-24T04:53:49;99835.50;;;27.37;50.79
79236;BME280;69062;47.460;18.812;2023-07-24T04:54:52;99828.41;;;27.36;51.12
79236;BME280;69062;47.460;18.812;2023-07-24T04:55:55;99834.66;;;27.37;51.04
79236;BME280;69062;47.460;18.812;2023-07-24T04:56:58;99826.53;;;27.37;50.86
79236;BME280;69062;47.460;18.812;2023-07-24T04:58:00;99830.09;;;27.37;50.65
79236;BME280;69062;47.460;18.812;2023-07-24T04:59:03;99834.66;;;27.37;50.46
79236;BME280;69062;47.460;18.812;2023-07-24T05:00:06;99835.50;;;27.37;50.42
79236;BME280;69062;47.460;18.812;2023-07-24T05:01:09;99823.81;;;27.37;51.30
79236;BME280;69062;47.460;18.812;2023-07-24T05:02:12;99834.66;;;27.37;51.18
79236;BME280;69062;47.460;18.812;2023-07-24T05:03:15;99830.09;;;27.37;50.84
79236;BME280;69062;47.460;18.812;2023-07-24T05:04:19;99829.25;;;27.37;51.00
79236;BME280;69062;47.460;18.812;2023-07-24T05:05:22;99831.97;;;27.37;50.91
79236;BME280;69062;47.460;18.812;2023-07-24T05:06:26;99836.53;;;27.36;51.34
79236;BME280;69062;47.460;18.812;2023-07-24T05:07:29;99833.66;;;27.38;50.59
79236;BME280;69062;47.460;18.812;2023-07-24T05:08:32;99839.94;;;27.38;50.86
79236;BME280;69062;47.460;18.812;2023-07-24T05:09:35;99830.09;;;27.37;51.00
79236;BME280;69062;47.460;18.812;2023-07-24T05:10:37;99837.22;;;27.38;51.29
79236;BME280;69062;47.460;18.812;2023-07-24T05:11:41;99831.78;;;27.38;51.20
79236;BME280;69062;47.460;18.812;2023-07-24T05:12:47;99820.94;;;27.38;50.58
79236;BME280;69062;47.460;18.812;2023-07-24T05:13:49;99835.34;;;27.39;51.32
79236;BME280;69062;47.460;18.812;2023-07-24T05:14:52;99830.94;;;27.38;51.07
79236;BME280;69062;47.460;18.812;2023-07-24T05:15:55;99818.22;;;27.38;51.22
79236;BME280;69062;47.460;18.812;2023-07-24T05:16:58;99836.19;;;27.39;50.64
79236;BME280;69062;47.460;18.812;2023-07-24T05:18:00;99830.75;;;27.39;50.45
79236;BME280;69062;47.460;18.812;2023-07-24T05:19:03;99833.47;;;27.39;50.37
79236;BME280;69062;47.460;18.812;2023-07-24T05:20:06;99839.94;;;27.38;50.46
79236;BME280;69062;47.460;18.812;2023-07-24T05:21:09;99835.34;;;27.39;51.14
79236;BME280;69062;47.460;18.812;2023-07-24T05:22:12;99835.34;;;27.39;50.75
79236;BME280;69062;47.460;18.812;2023-07-24T05:23:15;99837.22;;;27.38;51.22
79236;BME280;69062;47.460;18.812;2023-07-24T05:24:18;99846.00;;;27.40;50.39
79236;BME280;69062;47.460;18.812;2023-07-24T05:25:21;99838.06;;;27.39;50.68
79236;BME280;69062;47.460;18.812;2023-07-24T05:26:23;99835.13;;;27.40;50.82
79236;BME280;69062;47.460;18.812;2023-07-24T05:27:27;99837.00;;;27.40;50.49
79236;BME280;69062;47.460;18.812;2023-07-24T05:28:31;99829.72;;;27.40;50.87
79236;BME280;69062;47.460;18.812;2023-07-24T05:29:34;99835.13;;;27.40;51.06
79236;BME280;69062;47.460;18.812;2023-07-24T05:30:37;99835.97;;;27.41;50.95
79236;BME280;69062;47.460;18.812;2023-07-24T05:31:40;99825.13;;;27.41;51.20
79236;BME280;69062;47.460;18.812;2023-07-24T05:32:42;99825.13;;;27.41;50.80
79236;BME280;69062;47.460;18.812;2023-07-24T05:33:45;99823.25;;;27.41;50.67
79236;BME280;69062;47.460;18.812;2023-07-24T05:34:48;99825.97;;;27.41;51.22
79236;BME280;69062;47.460;18.812;2023-07-24T05:35:51;99829.50;;;27.42;51.09